Time;durP1;ratioP1;P1;durP2;ratioP2;P2;SDS_P1;SDS_P2;PMS_P1;PMS_P2;Temp;Humidity;BMP_temperature;BMP_pressure;BME280_temperature;BME280_humidity;BME280_pressure;Samples;Min_cycle;Max_cycle;Signal;HPM_P1;HPM_P2
2023/06/14 00:02:18;;;;;;;4.10;3.70;;;15.70;99.90;;;;;;4986585;28;20495;-56
2023/06/14 00:04:48;;;;;;;3.37;3.17;;;15.70;99.90;;;;;;4991345;28;20555;-57
2023/06/14 00:07:18;;;;;;;3.80;3.40;;;15.60;99.90;;;;;;4992503;28;20487;-57
2023/06/14 00:09:46;;;;;;;4.30;3.90;;;15.60;99.90;;;;;;4993373;28;20979;-58
2023/06/14 00:12:16;;;;;;;4.50;3.50;;;15.60;99.90;;;;;;4986574;28;20497;-58
2023/06/14 00:14:44;;;;;;;4.23;3.83;;;15.60;99.90;;;;;;4994545;28;20579;-57
2023/06/14 00:17:12;;;;;;;4.17;3.67;;;15.60;99.90;;;;;;4991346;28;20476;-58
2023/06/14 00:19:40;;;;;;;3.50;3.20;;;15.60;99.90;;;;;;4994869;28;21087;-58
2023/06/14 00:22:09;;;;;;;3.90;3.23;;;15.50;99.90;;;;;;4995608;28;20914;-58
2023/06/14 00:24:38;;;;;;;7.00;3.90;;;15.50;99.90;;;;;;4994255;28;20492;-58
2023/06/14 00:27:07;;;;;;;3.70;3.40;;;15.50;99.90;;;;;;4991075;28;20496;-57
2023/06/14 00:29:37;;;;;;;4.27;3.87;;;15.40;99.90;;;;;;4996883;28;20489;-57
2023/06/14 00:32:05;;;;;;;3.93;3.60;;;15.50;99.90;;;;;;4996747;28;21245;-58
2023/06/14 00:34:34;;;;;;;4.57;4.10;;;15.40;99.90;;;;;;4997417;28;20492;-61
2023/06/14 00:37:02;;;;;;;3.77;3.30;;;15.30;99.90;;;;;;4996526;28;20478;-58
2023/06/14 00:39:30;;;;;;;3.50;3.20;;;15.30;99.90;;;;;;5007560;28;20504;-57
2023/06/14 00:41:59;;;;;;;4.90;3.43;;;15.30;99.90;;;;;;5021739;28;20459;-57
2023/06/14 00:44:27;;;;;;;5.43;4.20;;;15.30;99.90;;;;;;5013998;28;20496;-58
2023/06/14 00:46:55;;;;;;;5.43;3.83;;;15.30;99.90;;;;;;4993281;28;20483;-57
2023/06/14 00:49:24;;;;;;;3.67;3.20;;;15.20;99.90;;;;;;4993628;28;20479;-57
2023/06/14 00:51:52;;;;;;;4.63;3.53;;;15.20;99.90;;;;;;4997761;28;20580;-57
2023/06/14 00:54:20;;;;;;;5.47;3.63;;;15.20;99.90;;;;;;4994702;28;20943;-58
2023/06/14 00:56:48;;;;;;;4.83;3.33;;;15.20;99.90;;;;;;4995486;28;20505;-58
2023/06/14 00:59:18;;;;;;;4.60;4.10;;;15.20;99.90;;;;;;4993165;28;20551;-57
2023/06/14 01:01:46;;;;;;;4.17;3.83;;;15.20;99.90;;;;;;4995557;28;20488;-57
2023/06/14 01:04:14;;;;;;;4.13;3.73;;;15.20;99.90;;;;;;4986626;28;20583;-57
2023/06/14 01:06:46;;;;;;;5.93;3.40;;;15.10;99.90;;;;;;4987517;28;20861;-57
2023/06/14 01:09:20;;;;;;;4.33;3.77;;;15.10;99.90;;;;;;4988406;28;20566;-57
2023/06/14 01:11:54;;;;;;;4.00;3.70;;;15.00;99.90;;;;;;4992445;28;21170;-57
2023/06/14 01:14:26;;;;;;;4.23;3.83;;;15.00;99.90;;;;;;4993060;28;21075;-57
2023/06/14 01:16:55;;;;;;;4.67;3.90;;;15.00;99.90;;;;;;4988647;28;20539;-57
2023/06/14 01:19:25;;;;;;;4.70;3.90;;;14.90;99.90;;;;;;4984326;28;20479;-57
2023/06/14 01:21:55;;;;;;;4.33;3.93;;;14.90;99.90;;;;;;4991022;28;20515;-57
2023/06/14 01:24:25;;;;;;;4.37;3.73;;;14.90;99.90;;;;;;4991327;28;20538;-58
2023/06/14 01:26:56;;;;;;;3.87;3.53;;;14.90;99.90;;;;;;4990044;28;20477;-57
2023/06/14 01:29:27;;;;;;;4.40;3.70;;;14.80;99.90;;;;;;4989323;28;20508;-57
2023/06/14 01:31:55;;;;;;;3.93;3.50;;;14.80;99.90;;;;;;4985591;28;20488;-56
2023/06/14 01:34:23;;;;;;;7.13;3.63;;;14.80;99.90;;;;;;4990716;28;20494;-57
2023/06/14 01:36:53;;;;;;;3.83;3.43;;;14.70;99.90;;;;;;4995654;28;20480;-57
2023/06/14 01:39:22;;;;;;;3.40;3.10;;;14.70;99.90;;;;;;4990075;28;20476;-57
2023/06/14 01:41:52;;;;;;;4.47;4.07;;;14.60;99.90;;;;;;4991538;28;20846;-57
2023/06/14 01:44:21;;;;;;;4.20;3.80;;;14.60;99.90;;;;;;4996798;28;20499;-57
2023/06/14 01:46:50;;;;;;;3.47;3.17;;;14.60;99.90;;;;;;4993145;28;20548;-57
2023/06/14 01:49:18;;;;;;;4.40;3.90;;;14.50;99.90;;;;;;4993491;28;20472;-57
2023/06/14 01:51:46;;;;;;;3.70;3.40;;;14.50;99.90;;;;;;4990610;28;21115;-57
2023/06/14 01:54:14;;;;;;;4.63;3.50;;;14.50;99.90;;;;;;4996496;28;20570;-57
2023/06/14 01:56:42;;;;;;;5.93;4.00;;;14.50;99.90;;;;;;4997619;28;20477;-57
2023/06/14 01:59:11;;;;;;;5.50;4.00;;;14.50;99.90;;;;;;4996906;28;20471;-58
2023/06/14 02:01:39;;;;;;;6.30;3.70;;;14.40;99.90;;;;;;4992730;28;20946;-57
2023/06/14 02:04:07;;;;;;;5.20;3.90;;;14.40;99.90;;;;;;4998103;28;20489;-61
2023/06/14 02:06:35;;;;;;;4.97;3.90;;;14.40;99.90;;;;;;4999264;28;20557;-57
2023/06/14 02:09:03;;;;;;;4.87;3.53;;;14.30;99.90;;;;;;4997648;28;20939;-57
2023/06/14 02:11:31;;;;;;;5.63;3.93;;;14.30;99.90;;;;;;4995369;28;20500;-57
2023/06/14 02:13:59;;;;;;;4.47;4.07;;;14.30;99.90;;;;;;4998872;28;20500;-58
2023/06/14 02:16:30;;;;;;;5.67;3.83;;;14.30;99.90;;;;;;4989425;28;20525;-57
2023/06/14 02:18:58;;;;;;;3.63;3.33;;;14.30;99.90;;;;;;4996859;28;20859;-57
2023/06/14 02:21:26;;;;;;;4.47;3.90;;;14.30;99.90;;;;;;4996137;28;20580;-57
2023/06/14 02:23:54;;;;;;;4.00;3.60;;;14.30;99.90;;;;;;4994161;28;20516;-57
2023/06/14 02:26:23;;;;;;;4.17;3.80;;;14.20;99.90;;;;;;4992171;28;20476;-57
2023/06/14 02:28:51;;;;;;;5.27;4.03;;;14.20;99.90;;;;;;4995597;28;20472;-61
2023/06/14 02:31:19;;;;;;;4.33;4.00;;;14.20;99.90;;;;;;4987140;28;20857;-57
2023/06/14 02:33:48;;;;;;;4.53;3.80;;;14.20;99.90;;;;;;4997763;28;20492;-57
2023/06/14 02:36:16;;;;;;;4.87;4.20;;;14.10;99.90;;;;;;4995040;28;20902;-57
2023/06/14 02:38:45;;;;;;;4.23;3.73;;;14.10;99.90;;;;;;4994576;28;20533;-57
2023/06/14 02:41:13;;;;;;;4.80;4.00;;;14.10;99.90;;;;;;4996402;28;20484;-58
2023/06/14 02:43:40;;;;;;;5.20;4.73;;;14.10;99.90;;;;;;4997853;28;20521;-57
2023/06/14 02:46:08;;;;;;;6.80;5.80;;;14.00;99.90;;;;;;4992518;28;20482;-57
2023/06/14 02:48:36;;;;;;;6.20;5.60;;;14.10;99.90;;;;;;4993755;28;20476;-58
2023/06/14 02:51:06;;;;;;;5.90;5.40;;;14.00;99.90;;;;;;4996787;28;20484;-57
2023/06/14 02:53:34;;;;;;;6.20;4.40;;;14.00;99.90;;;;;;4996664;28;20571;-57
2023/06/14 02:56:03;;;;;;;6.83;4.50;;;13.90;99.90;;;;;;5000313;28;20603;-57
2023/06/14 02:58:32;;;;;;;5.20;3.77;;;13.90;99.90;;;;;;4996737;28;20468;-58
2023/06/14 03:01:03;;;;;;;5.27;4.13;;;13.90;99.90;;;;;;4993682;28;20485;-58
2023/06/14 03:03:31;;;;;;;4.57;4.10;;;13.90;99.90;;;;;;4984570;28;20505;-58
2023/06/14 03:06:04;;;;;;;5.40;4.40;;;13.90;99.90;;;;;;4997848;28;20473;-57
2023/06/14 03:08:38;;;;;;;5.03;4.00;;;13.90;99.90;;;;;;4992160;28;20632;-57
2023/06/14 03:11:06;;;;;;;6.43;4.20;;;13.90;99.90;;;;;;4994051;28;21053;-57
2023/06/14 03:13:35;;;;;;;4.20;3.80;;;13.80;99.90;;;;;;4994431;28;20506;-57
2023/06/14 03:16:03;;;;;;;4.20;3.90;;;13.80;99.90;;;;;;4990002;28;21088;-57
2023/06/14 03:18:35;;;;;;;4.03;3.73;;;13.80;99.90;;;;;;4989510;28;20472;-57
2023/06/14 03:21:03;;;;;;;4.80;4.30;;;13.80;99.90;;;;;;4990269;28;21098;-57
2023/06/14 03:23:32;;;;;;;4.67;4.27;;;13.70;99.90;;;;;;4993864;28;20495;-56
2023/06/14 03:26:00;;;;;;;4.40;4.00;;;13.80;99.90;;;;;;4990050;28;20473;-58
2023/06/14 03:28:28;;;;;;;4.23;3.90;;;13.70;99.90;;;;;;4987308;28;20473;-61
2023/06/14 03:30:56;;;;;;;5.73;3.90;;;13.70;99.90;;;;;;4993866;28;20786;-57
2023/06/14 03:33:25;;;;;;;5.07;4.07;;;13.70;99.90;;;;;;4987872;28;20763;-58
2023/06/14 03:35:53;;;;;;;4.90;4.40;;;13.80;99.90;;;;;;5004394;28;20557;-56
2023/06/14 03:38:21;;;;;;;4.33;3.97;;;13.70;99.90;;;;;;5019978;28;20460;-57
2023/06/14 03:40:50;;;;;;;5.43;3.90;;;13.80;99.90;;;;;;5018343;28;20505;-57
2023/06/14 03:43:18;;;;;;;4.77;4.37;;;13.80;99.90;;;;;;5021903;28;20543;-56
2023/06/14 03:45:46;;;;;;;5.27;4.37;;;13.80;99.90;;;;;;5016801;28;20464;-57
2023/06/14 03:48:14;;;;;;;4.87;4.30;;;13.90;99.90;;;;;;5022329;28;20475;-57
2023/06/14 03:50:42;;;;;;;5.20;4.67;;;13.90;99.90;;;;;;5016604;28;20472;-57
2023/06/14 03:53:10;;;;;;;4.90;4.40;;;13.90;99.90;;;;;;5017213;28;20497;-58
2023/06/14 03:55:39;;;;;;;5.07;4.40;;;13.90;99.90;;;;;;5012646;28;20998;-58
2023/06/14 03:58:25;;;;;;;4.17;3.80;;;13.90;99.90;;;;;;4998956;28;20474;-58
2023/06/14 04:00:53;;;;;;;5.73;4.17;;;13.90;99.90;;;;;;4993457;28;20871;-57
2023/06/14 04:03:24;;;;;;;4.30;3.90;;;13.90;99.90;;;;;;4997879;28;20510;-57
2023/06/14 04:05:56;;;;;;;5.43;4.37;;;14.00;99.90;;;;;;4996575;28;20567;-57
2023/06/14 04:08:24;;;;;;;4.83;4.40;;;14.00;99.90;;;;;;4999093;28;20472;-57
2023/06/14 04:10:52;;;;;;;6.80;4.73;;;14.00;99.90;;;;;;4993039;28;20472;-57
2023/06/14 04:13:20;;;;;;;5.93;4.67;;;14.00;99.90;;;;;;4995829;28;20584;-57
2023/06/14 04:15:50;;;;;;;5.23;4.30;;;14.10;99.90;;;;;;4988998;28;20556;-57
2023/06/14 04:18:19;;;;;;;4.90;4.27;;;14.10;99.90;;;;;;4994393;28;20472;-57
2023/06/14 04:20:51;;;;;;;6.63;4.70;;;14.20;99.90;;;;;;4992026;28;20486;-57
2023/06/14 04:23:19;;;;;;;7.63;4.37;;;14.20;99.90;;;;;;4987853;28;20494;-57
2023/06/14 04:25:49;;;;;;;6.50;3.97;;;14.20;99.90;;;;;;4996368;28;20624;-58
2023/06/14 04:28:18;;;;;;;4.83;4.43;;;14.30;99.90;;;;;;4995607;28;20534;-58
2023/06/14 04:30:47;;;;;;;6.50;4.30;;;14.30;99.90;;;;;;4988430;28;20475;-58
2023/06/14 04:33:17;;;;;;;6.70;4.10;;;14.40;99.90;;;;;;4992562;28;20496;-58
2023/06/14 04:35:47;;;;;;;5.67;4.40;;;14.40;99.90;;;;;;4994807;28;20961;-58
2023/06/14 04:38:15;;;;;;;6.30;4.50;;;14.50;99.90;;;;;;4993683;28;20483;-58
2023/06/14 04:40:44;;;;;;;4.80;4.30;;;14.60;99.90;;;;;;4991017;28;21168;-58
2023/06/14 04:43:13;;;;;;;5.40;4.47;;;14.60;99.90;;;;;;4989795;28;20869;-58
2023/06/14 04:45:44;;;;;;;7.67;6.00;;;14.60;99.90;;;;;;4989818;28;20580;-58
2023/06/14 04:48:13;;;;;;;6.07;5.03;;;14.70;99.90;;;;;;4994908;28;20480;-58
2023/06/14 04:50:43;;;;;;;7.13;4.60;;;14.80;99.90;;;;;;4994413;28;20468;-58
2023/06/14 04:53:11;;;;;;;5.40;4.10;;;14.80;99.90;;;;;;4992539;28;22217;-58
2023/06/14 04:55:39;;;;;;;4.93;4.37;;;14.80;99.90;;;;;;4995807;28;20480;-58
2023/06/14 04:58:08;;;;;;;4.80;4.40;;;14.90;99.90;;;;;;4990293;28;20560;-58
2023/06/14 05:00:36;;;;;;;7.80;5.23;;;15.00;99.90;;;;;;4985872;28;20614;-57
2023/06/14 05:03:05;;;;;;;4.70;4.13;;;15.10;99.90;;;;;;4988920;28;21132;-58
2023/06/14 05:05:35;;;;;;;5.40;4.70;;;15.10;99.90;;;;;;4984721;28;20932;-58
2023/06/14 05:08:04;;;;;;;5.17;4.60;;;15.20;99.90;;;;;;4985438;28;21170;-58
2023/06/14 05:10:34;;;;;;;5.77;4.70;;;15.20;99.90;;;;;;4988840;28;20480;-58
2023/06/14 05:13:03;;;;;;;5.20;4.10;;;15.20;99.90;;;;;;4983119;28;20488;-58
2023/06/14 05:15:31;;;;;;;4.67;4.27;;;15.30;99.90;;;;;;4983616;28;21117;-57
2023/06/14 05:17:59;;;;;;;5.00;4.50;;;15.30;99.90;;;;;;4981776;28;20708;-58
2023/06/14 05:20:27;;;;;;;5.47;4.60;;;15.40;99.90;;;;;;4979526;28;20557;-58
2023/06/14 05:22:56;;;;;;;6.57;4.07;;;15.50;99.90;;;;;;4987527;28;20495;-58
2023/06/14 05:25:25;;;;;;;6.80;4.40;;;15.50;99.90;;;;;;4987889;28;20571;-60
2023/06/14 05:27:53;;;;;;;5.33;4.00;;;15.60;99.90;;;;;;4984098;28;20567;-57
2023/06/14 05:30:21;;;;;;;7.30;4.30;;;15.60;99.90;;;;;;4980769;28;21365;-57
2023/06/14 05:32:50;;;;;;;4.70;4.20;;;15.70;99.90;;;;;;4983324;28;20588;-58
2023/06/14 05:35:18;;;;;;;7.20;4.23;;;15.80;99.90;;;;;;4985117;28;20492;-58
2023/06/14 05:37:47;;;;;;;5.13;4.40;;;16.00;99.90;;;;;;4984341;28;20487;-57
2023/06/14 05:40:16;;;;;;;5.57;4.20;;;16.00;99.90;;;;;;4983111;28;20487;-58
2023/06/14 05:42:47;;;;;;;5.10;4.70;;;16.00;99.90;;;;;;4990813;28;20488;-58
2023/06/14 05:45:15;;;;;;;8.70;4.90;;;16.00;99.90;;;;;;4976122;28;20875;-58
2023/06/14 05:47:44;;;;;;;4.77;4.30;;;16.10;99.90;;;;;;4992592;28;20849;-58
2023/06/14 05:50:12;;;;;;;6.23;4.30;;;16.20;99.90;;;;;;4995961;28;20479;-58
2023/06/14 05:52:40;;;;;;;5.13;4.43;;;16.30;99.90;;;;;;4996163;28;20489;-58
2023/06/14 05:55:09;;;;;;;5.53;4.07;;;16.30;99.90;;;;;;4994072;28;20488;-58
2023/06/14 05:57:37;;;;;;;4.70;4.23;;;16.40;99.90;;;;;;4989759;28;20645;-58
2023/06/14 06:00:10;;;;;;;6.10;4.70;;;16.50;99.90;;;;;;4981140;28;20479;-58
2023/06/14 06:02:38;;;;;;;6.17;4.13;;;16.60;99.90;;;;;;4980628;28;21043;-58
2023/06/14 06:05:08;;;;;;;6.03;4.20;;;16.70;99.90;;;;;;4992802;28;20464;-58
2023/06/14 06:07:36;;;;;;;5.20;4.27;;;16.70;99.90;;;;;;5003581;28;20472;-59
2023/06/14 06:10:06;;;;;;;8.37;4.10;;;16.80;99.90;;;;;;4997387;28;20471;-57
2023/06/14 06:12:34;;;;;;;4.37;3.93;;;16.80;99.90;;;;;;4986065;28;20495;-59
2023/06/14 06:15:02;;;;;;;4.60;4.10;;;16.90;99.90;;;;;;4984389;28;20489;-58
2023/06/14 06:17:32;;;;;;;4.23;3.90;;;17.00;99.90;;;;;;4991827;28;21146;-58
2023/06/14 06:20:17;;;;;;;3.70;3.40;;;17.00;99.90;;;;;;4991634;28;20476;-58
2023/06/14 06:22:45;;;;;;;3.90;3.50;;;17.10;99.90;;;;;;4994157;28;20496;-58
2023/06/14 06:25:14;;;;;;;4.67;3.80;;;17.20;99.90;;;;;;5009001;28;20537;-59
2023/06/14 06:27:43;;;;;;;6.00;3.90;;;17.30;99.90;;;;;;5014652;28;20487;-60
2023/06/14 06:30:12;;;;;;;4.00;3.60;;;17.30;99.90;;;;;;4999067;28;20867;-58
2023/06/14 06:32:41;;;;;;;3.57;3.27;;;17.40;99.90;;;;;;4995905;28;20538;-58
2023/06/14 06:35:10;;;;;;;4.33;3.47;;;17.60;99.90;;;;;;4997291;28;20488;-58
2023/06/14 06:37:39;;;;;;;3.80;3.50;;;17.60;99.90;;;;;;4994487;28;20464;-58
2023/06/14 06:40:08;;;;;;;4.37;3.47;;;17.70;99.90;;;;;;4991845;28;20469;-59
2023/06/14 06:42:36;;;;;;;4.33;3.33;;;17.80;99.90;;;;;;4989825;28;20480;-58
2023/06/14 06:45:05;;;;;;;3.90;3.60;;;17.80;99.90;;;;;;4993377;28;20460;-58
2023/06/14 06:47:33;;;;;;;4.00;3.60;;;18.00;99.90;;;;;;4988850;28;20581;-58
2023/06/14 06:50:03;;;;;;;6.13;4.13;;;18.00;99.90;;;;;;4996871;28;20504;-58
2023/06/14 06:52:31;;;;;;;4.53;3.57;;;18.00;99.90;;;;;;4993952;28;20575;-58
2023/06/14 06:54:59;;;;;;;4.00;3.70;;;18.00;99.90;;;;;;4995239;28;20504;-58
2023/06/14 06:57:28;;;;;;;6.43;4.00;;;18.10;99.90;;;;;;4987599;28;20571;-58
2023/06/14 06:59:58;;;;;;;4.37;3.40;;;18.20;99.90;;;;;;4989034;28;20476;-58
2023/06/14 07:02:26;;;;;;;5.10;3.60;;;18.20;99.90;;;;;;4985831;28;20559;-58
2023/06/14 07:04:54;;;;;;;3.90;3.60;;;18.30;99.90;;;;;;4981777;28;20870;-58
2023/06/14 07:07:23;;;;;;;3.80;3.50;;;18.30;99.90;;;;;;4992683;28;20577;-58
2023/06/14 07:09:52;;;;;;;5.10;3.37;;;18.40;99.90;;;;;;4994285;28;20863;-58
2023/06/14 07:12:20;;;;;;;3.63;3.33;;;18.50;99.90;;;;;;4983311;28;20480;-57
2023/06/14 07:14:48;;;;;;;3.60;3.30;;;18.60;99.90;;;;;;4991857;28;20507;-58
2023/06/14 07:17:16;;;;;;;3.60;3.30;;;18.60;99.90;;;;;;4989499;28;20563;-57
2023/06/14 07:19:44;;;;;;;3.80;3.50;;;18.70;99.90;;;;;;4987157;28;20477;-58
2023/06/14 07:22:12;;;;;;;3.60;2.70;;;18.70;99.90;;;;;;4995119;28;20611;-58
2023/06/14 07:24:42;;;;;;;4.03;3.63;;;18.80;99.90;;;;;;4997763;28;20510;-58
2023/06/14 07:27:13;;;;;;;3.40;3.10;;;18.80;99.90;;;;;;4989901;28;20859;-58
2023/06/14 07:29:42;;;;;;;3.40;3.10;;;18.90;99.90;;;;;;4994969;28;20490;-58
2023/06/14 07:32:10;;;;;;;3.50;3.20;;;19.00;99.90;;;;;;4989437;28;21037;-59
2023/06/14 07:34:38;;;;;;;4.60;3.40;;;19.10;99.90;;;;;;4985191;28;20500;-58
2023/06/14 07:37:06;;;;;;;3.40;3.20;;;19.20;99.90;;;;;;4995961;28;20516;-58
2023/06/14 07:39:34;;;;;;;3.30;3.00;;;19.20;99.90;;;;;;4985000;28;20472;-58
2023/06/14 07:42:04;;;;;;;4.67;3.20;;;19.30;99.90;;;;;;4983931;28;20593;-58
2023/06/14 07:44:34;;;;;;;3.63;3.33;;;19.40;99.90;;;;;;4984274;28;20597;-58
2023/06/14 07:47:02;;;;;;;4.53;3.33;;;19.50;99.90;;;;;;4993902;28;20970;-60
2023/06/14 07:49:30;;;;;;;3.97;3.57;;;19.60;99.90;;;;;;4992190;28;20473;-58
2023/06/14 07:51:58;;;;;;;5.23;4.20;;;19.60;99.90;;;;;;4993606;28;20998;-58
2023/06/14 07:54:28;;;;;;;3.30;3.00;;;19.70;99.90;;;;;;4997554;28;20956;-58
2023/06/14 07:56:57;;;;;;;4.57;3.70;;;19.70;99.90;;;;;;4992440;28;20503;-58
2023/06/14 07:59:26;;;;;;;3.73;3.43;;;19.70;99.90;;;;;;4994159;28;20552;-58
2023/06/14 08:01:54;;;;;;;3.77;3.43;;;19.80;99.90;;;;;;4994619;28;20494;-58
2023/06/14 08:04:23;;;;;;;4.10;3.70;;;19.90;99.90;;;;;;4990805;28;20543;-58
2023/06/14 08:06:51;;;;;;;3.73;3.47;;;20.10;99.90;;;;;;4991934;28;21136;-58
2023/06/14 08:09:20;;;;;;;5.50;3.17;;;20.20;99.90;;;;;;4995496;28;20507;-57
2023/06/14 08:11:48;;;;;;;3.40;3.10;;;20.20;99.90;;;;;;4991891;28;21202;-59
2023/06/14 08:14:16;;;;;;;5.47;3.47;;;20.30;99.90;;;;;;4992673;28;20566;-58
2023/06/14 08:16:45;;;;;;;3.87;3.50;;;20.30;99.90;;;;;;4992691;28;20491;-58
2023/06/14 08:19:13;;;;;;;4.03;3.67;;;20.40;99.90;;;;;;4993244;28;20477;-58
2023/06/14 08:21:41;;;;;;;3.87;3.53;;;20.50;99.90;;;;;;4991572;28;20996;-58
2023/06/14 08:24:09;;;;;;;5.23;3.53;;;20.60;99.90;;;;;;4997411;28;20575;-58
2023/06/14 08:26:38;;;;;;;4.37;3.63;;;20.60;99.90;;;;;;4993476;28;20537;-58
2023/06/14 08:29:06;;;;;;;4.80;3.20;;;20.70;99.90;;;;;;4995132;28;20852;-62
2023/06/14 08:31:34;;;;;;;4.00;3.60;;;20.70;99.90;;;;;;4990804;28;21047;-58
2023/06/14 08:34:04;;;;;;;7.93;4.13;;;20.80;99.90;;;;;;4996930;28;20500;-58
2023/06/14 08:36:35;;;;;;;3.87;3.50;;;20.80;99.90;;;;;;5014272;28;20492;-58
2023/06/14 08:39:04;;;;;;;4.37;3.50;;;20.90;99.90;;;;;;4995762;28;20474;-58
2023/06/14 08:41:32;;;;;;;4.27;3.30;;;21.00;99.90;;;;;;4996782;28;20583;-58
2023/06/14 08:44:01;;;;;;;3.70;3.47;;;21.10;99.90;;;;;;4995908;28;20500;-58
2023/06/14 08:46:32;;;;;;;3.80;3.50;;;21.10;99.90;;;;;;4994509;28;20468;-57
2023/06/14 08:49:02;;;;;;;5.80;4.23;;;21.20;99.90;;;;;;4996588;28;20586;-58
2023/06/14 08:51:34;;;;;;;3.73;3.43;;;21.30;99.90;;;;;;4995384;28;21040;-57
2023/06/14 08:54:03;;;;;;;4.23;3.43;;;21.40;99.90;;;;;;4992139;28;20547;-59
2023/06/14 08:56:33;;;;;;;3.97;3.57;;;21.50;99.90;;;;;;4998569;28;20590;-58
2023/06/14 08:59:02;;;;;;;3.83;3.53;;;21.50;99.90;;;;;;4995701;28;20816;-58
2023/06/14 09:01:34;;;;;;;4.73;3.97;;;21.60;99.90;;;;;;4996243;28;20543;-57
2023/06/14 09:04:05;;;;;;;4.07;3.70;;;21.70;99.90;;;;;;4996563;28;20495;-60
2023/06/14 09:06:36;;;;;;;3.93;3.63;;;21.80;99.90;;;;;;5001435;28;20475;-58
2023/06/14 09:09:04;;;;;;;4.00;3.60;;;21.90;99.90;;;;;;5000114;28;20488;-58
2023/06/14 09:11:32;;;;;;;3.80;3.57;;;21.90;99.90;;;;;;4999536;28;20488;-58
2023/06/14 09:14:02;;;;;;;3.77;3.47;;;21.90;99.90;;;;;;5001237;28;20496;-58
2023/06/14 09:16:33;;;;;;;5.70;4.00;;;22.00;99.90;;;;;;5006043;28;20514;-57
2023/06/14 09:19:02;;;;;;;5.37;4.03;;;22.10;99.90;;;;;;5002493;28;21067;-58
2023/06/14 09:21:37;;;;;;;5.40;3.97;;;22.20;99.90;;;;;;4987187;28;20583;-57
2023/06/14 09:24:06;;;;;;;4.90;3.33;;;22.20;99.90;;;;;;4996035;28;20487;-59
2023/06/14 09:26:38;;;;;;;4.43;3.20;;;22.20;99.90;;;;;;4999872;28;20468;-59
2023/06/14 09:29:07;;;;;;;4.27;3.40;;;22.20;99.90;;;;;;4995567;28;20495;-58
2023/06/14 09:31:36;;;;;;;4.57;4.13;;;22.20;99.90;;;;;;4995081;28;20510;-58
2023/06/14 09:34:05;;;;;;;4.37;3.80;;;22.30;99.90;;;;;;4998036;28;20494;-58
2023/06/14 09:36:33;;;;;;;4.50;4.20;;;22.40;99.90;;;;;;5001477;28;20573;-58
2023/06/14 09:39:06;;;;;;;4.10;3.70;;;22.40;99.90;;;;;;5000635;28;20469;-57
2023/06/14 09:41:35;;;;;;;4.23;3.90;;;22.50;99.90;;;;;;4992094;28;21110;-57
2023/06/14 09:44:04;;;;;;;4.87;4.40;;;22.60;99.90;;;;;;5000403;28;20626;-57
2023/06/14 09:46:37;;;;;;;4.33;4.03;;;22.70;99.90;;;;;;4995392;28;20577;-57
2023/06/14 09:49:06;;;;;;;3.93;3.53;;;22.70;99.90;;;;;;4994145;28;20561;-59
2023/06/14 09:51:37;;;;;;;6.00;3.87;;;22.80;99.90;;;;;;4996195;28;20488;-59
2023/06/14 09:54:08;;;;;;;4.07;3.70;;;22.90;99.90;;;;;;4995361;28;20488;-57
2023/06/14 09:56:42;;;;;;;4.70;4.30;;;23.00;99.90;;;;;;4998554;28;20564;-61
2023/06/14 09:59:11;;;;;;;3.37;3.07;;;23.10;99.90;;;;;;4989194;28;21263;-59
2023/06/14 10:01:43;;;;;;;5.90;4.10;;;23.10;99.90;;;;;;4996770;28;20519;-60
2023/06/14 10:04:12;;;;;;;3.83;3.60;;;23.20;99.90;;;;;;4997331;28;20495;-59
2023/06/14 10:06:41;;;;;;;4.70;4.10;;;23.30;99.90;;;;;;4995307;28;21148;-59
2023/06/14 10:09:11;;;;;;;6.13;4.90;;;23.30;99.90;;;;;;4995743;28;20820;-58
2023/06/14 10:11:43;;;;;;;4.17;3.77;;;23.40;99.90;;;;;;4989894;28;20483;-57
2023/06/14 10:14:14;;;;;;;3.97;3.40;;;23.50;99.90;;;;;;4995536;28;20491;-58
2023/06/14 10:16:50;;;;;;;3.93;3.63;;;23.60;99.90;;;;;;5006116;28;20563;-57
2023/06/14 10:19:22;;;;;;;4.57;4.03;;;23.60;99.90;;;;;;5017103;28;20996;-58
2023/06/14 10:21:57;;;;;;;4.63;4.23;;;23.80;99.90;;;;;;5005431;28;20509;-58
2023/06/14 10:24:32;;;;;;;4.20;3.80;;;23.80;99.90;;;;;;5013155;28;21046;-57
2023/06/14 10:27:01;;;;;;;4.40;4.00;;;23.90;98.50;;;;;;5002190;28;20559;-57
2023/06/14 10:29:31;;;;;;;6.63;4.00;;;24.00;99.90;;;;;;5001351;28;20554;-58
2023/06/14 10:32:03;;;;;;;5.63;4.50;;;24.00;99.90;;;;;;5002308;28;20666;-58
2023/06/14 10:34:32;;;;;;;4.37;3.97;;;24.00;99.90;;;;;;4999359;28;20528;-58
2023/06/14 10:37:05;;;;;;;6.47;3.87;;;23.90;99.90;;;;;;5001150;28;20497;-57
2023/06/14 10:39:40;;;;;;;4.30;4.00;;;23.80;98.20;;;;;;4990472;28;20563;-61
2023/06/14 10:42:09;;;;;;;3.93;3.47;;;23.90;94.50;;;;;;4993165;28;20575;-59
2023/06/14 10:44:47;;;;;;;4.27;3.53;;;24.00;96.10;;;;;;4992938;28;20515;-59
2023/06/14 10:47:24;;;;;;;4.17;3.87;;;24.10;99.30;;;;;;4991573;28;24764;-59
2023/06/14 10:49:54;;;;;;;4.87;3.70;;;24.20;99.90;;;;;;4991986;28;20471;-60
2023/06/14 10:52:25;;;;;;;5.27;3.90;;;24.40;98.60;;;;;;4992408;28;20611;-60
2023/06/14 10:55:14;;;;;;;4.17;3.70;;;24.50;99.20;;;;;;4996129;28;20930;-60
2023/06/14 10:57:45;;;;;;;4.10;3.80;;;24.60;97.20;;;;;;4991804;28;20505;-60
2023/06/14 11:00:22;;;;;;;4.20;3.87;;;24.70;98.40;;;;;;4997239;28;20455;-60
2023/06/14 11:03:36;;;;;;;4.20;3.90;;;24.80;98.10;;;;;;4993549;28;20887;-61
2023/06/14 11:06:15;;;;;;;4.37;3.97;;;25.00;85.40;;;;;;4991360;28;20872;-60
2023/06/14 11:09:24;;;;;;;5.03;3.93;;;25.20;88.00;;;;;;4989697;28;20469;-60
2023/06/14 11:11:56;;;;;;;4.50;4.10;;;25.30;91.40;;;;;;4986015;28;20516;-61
2023/06/14 11:14:24;;;;;;;5.57;4.23;;;25.40;78.50;;;;;;4997135;28;20577;-60
2023/06/14 11:16:52;;;;;;;6.63;3.90;;;25.50;75.20;;;;;;4999736;28;20567;-60
2023/06/14 11:19:22;;;;;;;4.43;4.00;;;25.50;71.40;;;;;;4998317;28;21085;-61
2023/06/14 11:21:50;;;;;;;4.30;3.90;;;25.40;71.50;;;;;;4976723;28;21012;-60
2023/06/14 11:24:18;;;;;;;5.93;3.70;;;25.50;73.00;;;;;;4992314;28;20591;-60
2023/06/14 11:26:48;;;;;;;6.53;3.93;;;25.40;76.30;;;;;;4989971;28;20472;-60
2023/06/14 11:29:18;;;;;;;4.00;3.60;;;25.30;79.10;;;;;;4996167;28;20591;-60
2023/06/14 11:31:46;;;;;;;3.73;3.50;;;25.30;80.70;;;;;;4993022;28;20520;-60
2023/06/14 11:34:15;;;;;;;4.37;3.63;;;25.20;79.70;;;;;;4992804;28;20495;-60
2023/06/14 11:36:43;;;;;;;6.77;3.50;;;25.10;81.30;;;;;;4990124;28;20489;-60
2023/06/14 11:39:11;;;;;;;4.80;3.90;;;25.20;82.50;;;;;;4997492;28;24385;-60
2023/06/14 11:41:42;;;;;;;4.63;3.50;;;25.30;78.20;;;;;;4985940;28;20606;-61
2023/06/14 11:44:11;;;;;;;4.10;3.70;;;25.50;80.20;;;;;;4987721;28;21088;-62
2023/06/14 11:46:41;;;;;;;7.23;3.77;;;25.70;82.30;;;;;;4979818;28;20472;-60
2023/06/14 11:49:09;;;;;;;3.83;3.37;;;25.90;83.50;;;;;;4983447;28;20464;-60
2023/06/14 11:51:38;;;;;;;3.73;3.40;;;26.10;79.70;;;;;;4986552;28;20926;-60
2023/06/14 11:54:08;;;;;;;4.13;3.73;;;26.20;80.80;;;;;;4971833;28;21127;-59
2023/06/14 11:56:37;;;;;;;4.33;3.80;;;26.40;73.00;;;;;;4995768;28;20504;-60
2023/06/14 11:59:06;;;;;;;4.30;3.80;;;26.40;71.60;;;;;;4993217;28;20499;-60
2023/06/14 12:01:38;;;;;;;4.50;4.10;;;26.40;71.60;;;;;;4994518;28;20519;-61
2023/06/14 12:04:08;;;;;;;7.53;4.00;;;26.30;72.40;;;;;;4986658;28;20504;-60
2023/06/14 12:06:39;;;;;;;4.20;3.90;;;26.00;73.60;;;;;;4994372;28;20946;-60
2023/06/14 12:09:12;;;;;;;4.53;3.57;;;25.90;74.40;;;;;;4989141;28;20472;-61
2023/06/14 12:11:41;;;;;;;4.10;3.80;;;25.80;77.10;;;;;;4983782;28;20495;-58
2023/06/14 12:14:10;;;;;;;4.03;3.73;;;25.80;77.80;;;;;;4988770;28;20494;-59
2023/06/14 12:16:39;;;;;;;3.90;3.60;;;26.00;76.80;;;;;;4996557;28;20571;-58
2023/06/14 12:19:14;;;;;;;4.63;3.90;;;26.20;79.30;;;;;;4993338;28;20484;-60
2023/06/14 12:21:43;;;;;;;4.93;3.97;;;26.20;72.10;;;;;;4997350;28;20487;-61
2023/06/14 12:24:12;;;;;;;3.47;3.17;;;26.20;75.60;;;;;;4991285;28;20493;-61
2023/06/14 12:26:42;;;;;;;4.00;3.47;;;26.30;78.40;;;;;;4995642;28;20494;-61
2023/06/14 12:29:11;;;;;;;4.20;3.90;;;26.40;67.10;;;;;;4994773;28;20461;-64
2023/06/14 12:31:40;;;;;;;3.50;3.20;;;26.40;69.40;;;;;;4993945;28;20493;-63
2023/06/14 12:34:08;;;;;;;4.10;3.70;;;26.50;72.00;;;;;;4980862;28;20519;-58
2023/06/14 12:36:41;;;;;;;4.07;3.77;;;26.70;71.60;;;;;;4988923;28;20563;-59
2023/06/14 12:39:09;;;;;;;3.87;3.57;;;26.90;63.60;;;;;;4993436;28;20495;-59
2023/06/14 12:41:37;;;;;;;3.83;3.53;;;26.80;63.50;;;;;;4977684;28;20572;-58
2023/06/14 12:44:06;;;;;;;4.63;3.57;;;26.70;65.80;;;;;;4990625;28;20492;-58
2023/06/14 12:46:34;;;;;;;4.10;3.80;;;26.50;61.10;;;;;;5000773;28;20500;-60
2023/06/14 12:49:03;;;;;;;6.40;3.73;;;26.30;65.20;;;;;;4987018;28;20476;-58
2023/06/14 12:51:31;;;;;;;5.77;3.57;;;26.40;63.70;;;;;;4987852;28;21041;-57
2023/06/14 12:54:00;;;;;;;3.93;3.63;;;26.60;61.60;;;;;;4989637;28;20527;-56
2023/06/14 12:56:28;;;;;;;4.47;3.40;;;26.80;61.60;;;;;;4988614;28;20476;-61
2023/06/14 12:58:56;;;;;;;4.13;3.73;;;27.10;67.00;;;;;;4985419;28;20527;-57
2023/06/14 13:01:24;;;;;;;4.07;3.77;;;27.30;64.30;;;;;;4983664;28;20623;-58